Airfield :
LOGIN :

Register | Disclaimer

   EN    FR    IT 

 










Legend :    VFR   Marginal VFR   IFR   Intensive IFR   Very Intensive IFR
Visi :
Ceiling :
>= 8 km
>= 3000ft
5 to 8 km
1000 to 3000 ft
1500m to 5 km
500 to 1000 ft
800 to 1500m
200 to 500 ft
< 800m
< 200 ft
Symbols :   Thunderstorms  Fog  Heavy snow  Heavy precipitations  Wind > 20 kt
SIGMETs :     Misc.  Thunderstorms  Icing  Turbulence  Mountain Waves  Volcanic Ashes







- Airport Elevation : 1906 ft
- IATA code : INN


LOWI - Innsbruck

CURRENT METAR :
  • 220420Z 26003KT CAVOK 09/06 Q1020 NOSIG

EXPIRED METARs :
  • 220350Z VRB02KT CAVOK 08/05 Q1020 NOSIG
  • 220320Z AUTO 26003KT 9999 NSC 09/06 Q1020
  • 220250Z AUTO 29002KT 9999 NSC 09/06 Q1020
  • 220220Z AUTO 25003KT 9999 NSC 10/06 Q1020
  • 220150Z AUTO 27002KT 9999 NSC 10/07 Q1020

TAF TAF LOWI
Valid from the 22 at 00:00 until the 23 at 00:00 UTC


212315Z 2200/2224 27005KT CAVOK TX27/2214Z TN08/2205Z
BECMG 2208/2210 08007KT 9999 FEW070
BECMG 2218/2220 27005KT
No reported NOTAMs for that airfield.



MET'MAP, your aeronautical weather chart ! - Copyright ORBIFLY December 2007 - Disclaimer

ORBIFLY MET'MAP TEAM :

Programming & Development : Alexandra Zaïnal
Concept & Development : Baudouin d'Aumeries
Co-Development & Prog : Marc-Olivier Méhu
Technical & hardware support : Manuel Goepfert

Contact : metmap@orbifly.com




SOURCES & CREDITS :

   NOAA